createdAt,value
2023-05-17T00:00:10.403Z,3.03
2023-05-17T00:02:38.420Z,4.38
2023-05-17T00:05:05.441Z,3.55
2023-05-17T00:07:31.979Z,3.97
2023-05-17T00:09:58.605Z,3.83
2023-05-17T00:12:25.149Z,4.65
2023-05-17T00:17:18.151Z,3.55
2023-05-17T00:22:11.123Z,3.35
2023-05-17T00:27:04.475Z,2.85
2023-05-17T00:29:30.996Z,3.05
2023-05-17T00:34:23.967Z,3.10
2023-05-17T00:39:16.976Z,3.08
2023-05-17T00:44:10.126Z,3.63
2023-05-17T00:49:03.563Z,3.17
2023-05-17T00:51:31.242Z,3.33
2023-05-17T00:53:57.933Z,3.67
2023-05-17T00:56:25.287Z,3.58
2023-05-17T00:58:53.117Z,3.47
2023-05-17T01:01:20.010Z,3.67
2023-05-17T01:03:46.747Z,3.50
2023-05-17T01:06:13.576Z,3.45
2023-05-17T01:08:40.116Z,3.30
2023-05-17T01:14:09.259Z,3.35
2023-05-17T01:16:56.628Z,3.60
2023-05-17T01:20:03.529Z,4.03
2023-05-17T01:22:45.842Z,3.10
2023-05-17T01:25:36.277Z,2.67
2023-05-17T01:28:04.921Z,3.28
2023-05-17T01:30:33.241Z,3.70
2023-05-17T01:33:00.983Z,3.45
2023-05-17T01:35:27.756Z,3.55
2023-05-17T01:37:54.463Z,3.60
2023-05-17T01:42:57.826Z,3.47
2023-05-17T01:45:36.314Z,3.28
2023-05-17T01:48:21.856Z,3.10
2023-05-17T01:50:51.201Z,3.22
2023-05-17T01:53:34.139Z,2.95
2023-05-17T01:56:07.724Z,3.50
2023-05-17T01:58:48.977Z,3.03
2023-05-17T02:01:18.506Z,3.55
2023-05-17T02:03:49.997Z,3.95
2023-05-17T02:06:17.449Z,3.08
2023-05-17T02:08:43.984Z,2.72
2023-05-17T02:13:36.972Z,3.00
2023-05-17T02:16:04.441Z,3.25
2023-05-17T02:18:35.513Z,2.90
2023-05-17T02:21:02.307Z,2.83
2023-05-17T02:25:55.501Z,3.55
2023-05-17T02:28:21.978Z,3.20
2023-05-17T02:33:15.084Z,3.13
2023-05-17T02:35:41.638Z,3.67
2023-05-17T02:40:34.684Z,3.38
2023-05-17T02:43:02.659Z,3.30
2023-05-17T02:47:56.161Z,3.30
2023-05-17T02:50:22.961Z,2.92
2023-05-17T02:52:49.597Z,2.83
2023-05-17T02:55:16.456Z,3.20
2023-05-17T02:57:43.211Z,3.10
2023-05-17T03:00:10.466Z,3.83
2023-05-17T03:02:37.128Z,3.38
2023-05-17T03:05:05.233Z,3.58
2023-05-17T03:07:32.221Z,3.47
2023-05-17T03:09:58.786Z,3.47
2023-05-17T03:12:29.659Z,3.35
2023-05-17T03:14:56.671Z,3.10
2023-05-17T03:17:24.522Z,3.08
2023-05-17T03:19:51.329Z,3.45
2023-05-17T03:22:17.951Z,3.05
2023-05-17T03:27:11.191Z,3.10
2023-05-17T03:29:37.926Z,3.50
2023-05-17T03:32:05.502Z,3.05
2023-05-17T03:34:32.247Z,3.53
2023-05-17T03:39:25.454Z,3.65
2023-05-17T03:41:52.024Z,2.33
2023-05-17T03:44:19.420Z,2.95
2023-05-17T03:46:46.177Z,3.33
2023-05-17T03:49:12.798Z,3.45
2023-05-17T03:51:40.087Z,3.88
2023-05-17T03:54:06.649Z,3.55
2023-05-17T03:56:33.548Z,3.33
2023-05-17T03:59:00.076Z,3.25
2023-05-17T04:01:27.300Z,2.42
2023-05-17T04:03:53.953Z,2.97
2023-05-17T04:06:21.997Z,2.85
2023-05-17T04:08:48.964Z,3.08
2023-05-17T04:11:15.523Z,2.65
2023-05-17T04:13:43.248Z,3.38
2023-05-17T04:16:10.636Z,3.67
2023-05-17T04:18:41.180Z,2.90
2023-05-17T04:21:08.893Z,2.70
2023-05-17T04:23:36.512Z,3.17
2023-05-17T04:26:04.885Z,3.22
2023-05-17T04:28:34.993Z,2.80
2023-05-17T04:31:02.534Z,3.08
2023-05-17T04:35:55.720Z,2.47
2023-05-17T04:38:26.264Z,2.50
2023-05-17T04:40:54.740Z,2.72
2023-05-17T04:43:21.324Z,2.78
2023-05-17T04:48:16.311Z,2.85
2023-05-17T04:50:47.080Z,2.00
2023-05-17T04:53:15.811Z,2.25
2023-05-17T04:55:42.692Z,2.58
2023-05-17T04:58:09.334Z,2.30
2023-05-17T05:00:36.299Z,1.52
2023-05-17T05:03:07.902Z,2.80
2023-05-17T05:05:35.689Z,2.35
2023-05-17T05:08:02.472Z,2.45
2023-05-17T05:10:29.528Z,2.58
2023-05-17T05:12:56.678Z,2.67
2023-05-17T05:15:23.416Z,2.55
2023-05-17T05:17:55.186Z,2.00
2023-05-17T05:20:21.824Z,2.65
2023-05-17T05:22:48.448Z,2.47
2023-05-17T05:25:17.476Z,2.60
2023-05-17T05:27:44.581Z,2.75
2023-05-17T05:30:13.193Z,2.83
2023-05-17T05:32:39.869Z,3.00
2023-05-17T05:35:06.734Z,2.75
2023-05-17T05:37:33.742Z,3.17
2023-05-17T05:42:29.603Z,2.60
2023-05-17T05:44:56.162Z,2.35
2023-05-17T05:47:23.657Z,2.80
2023-05-17T05:52:16.763Z,3.35
2023-05-17T05:54:44.690Z,3.20
2023-05-17T05:57:11.492Z,2.90
2023-05-17T05:59:38.988Z,2.25
2023-05-17T06:02:05.627Z,3.33
2023-05-17T06:04:43.948Z,2.67
2023-05-17T06:07:12.741Z,2.35
2023-05-17T06:09:39.244Z,2.72
2023-05-17T06:14:32.527Z,3.13
2023-05-17T06:19:28.702Z,2.72
2023-05-17T06:21:55.386Z,2.95
2023-05-17T06:26:48.561Z,3.60
2023-05-17T06:29:15.136Z,3.28
2023-05-17T06:34:08.189Z,2.95
2023-05-17T06:39:04.129Z,3.42
2023-05-17T06:43:57.231Z,3.20
2023-05-17T06:48:51.331Z,3.53
2023-05-17T06:51:18.173Z,4.05
2023-05-17T06:56:11.438Z,3.72
2023-05-17T06:58:37.972Z,3.80
2023-05-17T07:03:31.226Z,3.97
2023-05-17T07:05:57.812Z,3.42
2023-05-17T07:10:54.035Z,3.92
2023-05-17T07:13:20.854Z,3.60
2023-05-17T07:15:47.452Z,3.97
2023-05-17T07:18:14.218Z,4.15
2023-05-17T07:20:40.809Z,3.60
2023-05-17T07:25:34.554Z,3.80
2023-05-17T07:28:01.123Z,4.40
2023-05-17T07:32:54.129Z,3.85
2023-05-17T07:37:48.784Z,4.38
2023-05-17T07:40:15.459Z,4.20
2023-05-17T07:42:41.960Z,4.82
2023-05-17T07:47:35.425Z,3.97
2023-05-17T07:50:04.164Z,3.97
2023-05-17T07:52:30.739Z,4.13
2023-05-17T07:57:23.915Z,4.35
2023-05-17T08:02:16.905Z,4.30
2023-05-17T08:07:10.397Z,4.23
2023-05-17T08:09:36.995Z,4.43
2023-05-17T08:14:30.095Z,3.22
2023-05-17T08:16:56.617Z,3.60
2023-05-17T08:21:49.976Z,3.87
2023-05-17T08:29:10.709Z,3.53
2023-05-17T08:34:03.726Z,4.22
2023-05-17T08:36:30.363Z,5.15
2023-05-17T08:41:23.333Z,4.15
2023-05-17T08:48:50.704Z,3.45
2023-05-17T08:51:18.951Z,4.07
2023-05-17T08:53:47.353Z,4.78
2023-05-17T08:56:16.521Z,4.97
2023-05-17T08:58:56.382Z,4.00
2023-05-17T09:01:25.495Z,5.25
2023-05-17T09:03:53.834Z,3.92
2023-05-17T09:06:21.770Z,4.35
2023-05-17T09:08:52.678Z,4.30
2023-05-17T09:11:30.095Z,3.53
2023-05-17T09:14:00.876Z,4.38
2023-05-17T09:16:33.353Z,3.83
2023-05-17T09:19:01.245Z,3.97
2023-05-17T09:21:29.656Z,3.78
2023-05-17T09:26:25.965Z,3.80
2023-05-17T09:28:53.492Z,3.70
2023-05-17T09:31:20.028Z,4.07
2023-05-17T09:36:22.279Z,3.53
2023-05-17T09:38:59.351Z,4.70
2023-05-17T09:44:03.641Z,3.92
2023-05-17T09:46:34.981Z,4.70
2023-05-17T09:49:03.984Z,4.55
2023-05-17T09:51:44.673Z,4.07
2023-05-17T09:54:11.799Z,4.63
2023-05-17T09:56:38.554Z,3.75
2023-05-17T09:59:12.398Z,5.05
2023-05-17T10:01:41.431Z,4.95
2023-05-17T10:04:12.170Z,4.85
2023-05-17T10:09:13.653Z,4.15
2023-05-17T10:11:43.076Z,4.40
2023-05-17T10:14:23.478Z,4.55
2023-05-17T10:16:51.661Z,6.70
2023-05-17T10:19:20.842Z,4.85
2023-05-17T10:21:52.548Z,4.38
2023-05-17T10:24:21.517Z,5.55
2023-05-17T10:26:51.099Z,4.63
2023-05-17T10:29:20.640Z,5.20
2023-05-17T10:31:47.589Z,4.18
2023-05-17T10:34:15.817Z,6.45
2023-05-17T10:36:43.946Z,5.80
2023-05-17T10:39:11.344Z,4.95
2023-05-17T10:41:42.333Z,4.45
2023-05-17T10:44:12.270Z,4.05
2023-05-17T10:46:39.215Z,3.55
2023-05-17T10:49:06.027Z,4.57
2023-05-17T10:51:34.406Z,4.70
2023-05-17T10:54:11.796Z,4.97
2023-05-17T10:56:50.093Z,4.57
2023-05-17T10:59:21.535Z,4.82
2023-05-17T11:02:07.154Z,4.35
2023-05-17T11:04:38.578Z,5.38
2023-05-17T11:07:18.856Z,4.93
2023-05-17T11:09:49.165Z,5.32
2023-05-17T11:12:17.170Z,4.60
2023-05-17T11:14:51.896Z,5.13
2023-05-17T11:17:20.895Z,4.97
2023-05-17T11:20:13.386Z,4.88
2023-05-17T11:22:43.871Z,5.18
2023-05-17T11:25:14.448Z,5.38
2023-05-17T11:27:51.824Z,5.68
2023-05-17T11:30:29.430Z,5.80
2023-05-17T11:33:08.817Z,5.00
2023-05-17T11:35:40.681Z,6.40
2023-05-17T11:38:24.628Z,4.85
2023-05-17T11:40:55.880Z,8.13
2023-05-17T11:43:24.133Z,6.47
2023-05-17T11:45:53.711Z,5.90
2023-05-17T11:48:22.902Z,5.15
2023-05-17T11:50:51.705Z,6.30
2023-05-17T11:53:19.570Z,6.05
2023-05-17T11:55:47.982Z,5.65
2023-05-17T11:58:16.619Z,5.65
2023-05-17T12:00:44.006Z,6.72
2023-05-17T12:03:25.528Z,6.60
2023-05-17T12:06:02.817Z,6.68
2023-05-17T12:08:30.894Z,6.30
2023-05-17T12:10:57.980Z,6.45
2023-05-17T12:13:28.367Z,5.97
2023-05-17T12:15:57.745Z,6.20
2023-05-17T12:18:35.763Z,6.18
2023-05-17T12:21:02.526Z,5.68
2023-05-17T12:23:34.670Z,6.20
2023-05-17T12:26:10.362Z,6.95
2023-05-17T12:28:39.062Z,6.72
2023-05-17T12:31:20.452Z,7.47
2023-05-17T12:33:48.200Z,7.13
2023-05-17T12:36:16.294Z,6.82
2023-05-17T12:38:44.737Z,5.78
2023-05-17T12:41:12.840Z,6.68
2023-05-17T12:43:40.876Z,6.07
2023-05-17T12:46:08.274Z,6.20
2023-05-17T12:48:40.070Z,5.75
2023-05-17T12:51:12.214Z,7.18
2023-05-17T12:53:41.382Z,6.75
2023-05-17T12:56:09.271Z,7.38
2023-05-17T12:58:35.928Z,7.75
2023-05-17T13:01:03.909Z,6.60
2023-05-17T13:03:31.415Z,5.22
2023-05-17T13:06:06.220Z,5.60
2023-05-17T13:08:33.445Z,6.50
2023-05-17T13:11:07.362Z,7.13
2023-05-17T13:13:34.266Z,6.00
2023-05-17T13:16:00.811Z,5.90
2023-05-17T13:20:54.442Z,6.28
2023-05-17T13:23:21.054Z,5.22
2023-05-17T13:28:14.030Z,5.13
2023-05-17T13:33:07.079Z,5.45
2023-05-17T13:35:33.626Z,6.15
2023-05-17T13:40:26.810Z,5.95
2023-05-17T13:42:53.375Z,6.32
2023-05-17T13:47:46.754Z,5.85
2023-05-17T13:50:17.130Z,5.30
2023-05-17T13:52:44.505Z,5.75
2023-05-17T13:55:11.088Z,6.35
2023-05-17T14:00:05.565Z,4.97
2023-05-17T14:02:33.002Z,6.30
2023-05-17T14:07:26.085Z,4.68
2023-05-17T14:09:52.959Z,6.00
2023-05-17T14:12:19.537Z,5.57
2023-05-17T14:17:12.614Z,5.15
2023-05-17T14:22:05.864Z,4.95
2023-05-17T14:24:33.590Z,5.88
2023-05-17T14:27:02.302Z,5.10
2023-05-17T14:29:30.326Z,5.43
2023-05-17T14:31:56.845Z,5.13
2023-05-17T14:36:51.214Z,5.93
2023-05-17T14:39:17.812Z,5.68
2023-05-17T14:44:11.756Z,5.35
2023-05-17T14:49:06.421Z,5.18
2023-05-17T14:51:33.048Z,6.25
2023-05-17T14:56:26.016Z,5.75
2023-05-17T15:01:19.291Z,5.88
2023-05-17T15:03:46.108Z,5.35
2023-05-17T15:06:12.952Z,5.47
2023-05-17T15:08:39.499Z,6.18
2023-05-17T15:13:32.680Z,5.43
2023-05-17T15:15:59.495Z,5.00
2023-05-17T15:18:26.157Z,5.72
2023-05-17T15:23:19.195Z,5.80
2023-05-17T15:28:12.194Z,6.32
2023-05-17T15:33:05.385Z,6.53
2023-05-17T15:35:32.083Z,5.72
2023-05-17T15:40:26.241Z,5.93
2023-05-17T15:42:52.794Z,5.75
2023-05-17T15:47:48.834Z,5.18
2023-05-17T15:50:15.467Z,5.53
2023-05-17T15:55:09.701Z,5.03
2023-05-17T15:57:36.490Z,7.25
2023-05-17T16:00:04.279Z,6.28
2023-05-17T16:02:32.053Z,6.47
2023-05-17T16:05:00.608Z,5.93
2023-05-17T16:07:29.230Z,5.55
2023-05-17T16:12:22.154Z,5.22
2023-05-17T16:17:15.158Z,5.20
2023-05-17T16:22:08.123Z,5.50
2023-05-17T16:27:03.785Z,4.57
2023-05-17T16:29:33.111Z,5.90
2023-05-17T16:31:59.645Z,5.40
2023-05-17T16:36:54.884Z,4.38
2023-05-17T16:41:48.414Z,5.63
2023-05-17T16:44:14.923Z,5.25
2023-05-17T16:49:08.212Z,6.40
2023-05-17T16:51:34.711Z,8.88
2023-05-17T16:56:27.619Z,5.82
2023-05-17T17:01:21.238Z,5.75
2023-05-17T17:03:47.986Z,5.47
2023-05-17T17:06:14.552Z,5.70
2023-05-17T17:11:08.511Z,5.35
2023-05-17T17:16:02.455Z,5.70
2023-05-17T17:18:29.382Z,5.47
2023-05-17T17:20:57.217Z,5.80
2023-05-17T17:23:23.779Z,6.18
2023-05-17T17:28:17.350Z,5.80
2023-05-17T17:30:43.914Z,5.60
2023-05-17T17:35:36.944Z,5.20
2023-05-17T17:40:30.245Z,5.80
2023-05-17T17:42:56.980Z,5.00
2023-05-17T17:47:50.103Z,5.20
2023-05-17T17:50:16.710Z,4.50
2023-05-17T17:55:10.862Z,5.47
2023-05-17T17:57:37.382Z,5.18
2023-05-17T18:02:31.890Z,5.47
2023-05-17T18:07:25.429Z,6.35
2023-05-17T18:09:52.356Z,6.30
2023-05-17T18:12:18.902Z,5.97
2023-05-17T18:17:11.996Z,5.38
2023-05-17T18:22:05.197Z,4.78
2023-05-17T18:24:32.032Z,5.45
2023-05-17T18:26:58.588Z,8.63
2023-05-17T18:31:51.974Z,31.23
2023-05-17T18:34:18.792Z,12.32
2023-05-17T18:36:46.022Z,19.88
2023-05-17T18:39:12.602Z,24.13
2023-05-17T18:44:05.856Z,50.65
2023-05-17T18:46:32.473Z,38.22
2023-05-17T18:51:25.599Z,24.20
2023-05-17T18:56:22.698Z,11.32
2023-05-17T18:58:54.976Z,8.70
2023-05-17T19:01:21.603Z,6.90
2023-05-17T19:03:51.372Z,6.00
2023-05-17T19:06:19.647Z,6.70
2023-05-17T19:08:46.546Z,5.75
2023-05-17T19:11:13.056Z,5.25
2023-05-17T19:16:06.309Z,4.88
2023-05-17T19:18:33.244Z,5.47
2023-05-17T19:20:59.965Z,5.55
2023-05-17T19:23:28.193Z,5.88
2023-05-17T19:25:55.127Z,5.65
2023-05-17T19:28:21.781Z,5.78
2023-05-17T19:30:48.313Z,6.78
2023-05-17T19:33:14.908Z,6.55
2023-05-17T19:38:08.321Z,6.07
2023-05-17T19:40:35.652Z,6.05
2023-05-17T19:43:02.783Z,6.15
2023-05-17T19:45:29.288Z,6.38
2023-05-17T19:50:22.846Z,6.88
2023-05-17T19:55:21.754Z,6.40
2023-05-17T19:57:49.058Z,6.75
2023-05-17T20:00:15.857Z,6.32
2023-05-17T20:02:42.536Z,5.93
2023-05-17T20:05:09.620Z,6.10
2023-05-17T20:07:36.154Z,5.78
2023-05-17T20:12:29.166Z,6.43
2023-05-17T20:17:22.188Z,6.35
2023-05-17T20:22:15.407Z,6.43
2023-05-17T20:24:43.988Z,6.65
2023-05-17T20:27:11.111Z,6.82
2023-05-17T20:29:38.338Z,8.10
2023-05-17T20:32:05.830Z,7.90
2023-05-17T20:34:33.418Z,10.88
2023-05-17T20:37:01.020Z,10.15
2023-05-17T20:39:31.066Z,8.60
2023-05-17T20:41:58.306Z,8.00
2023-05-17T20:44:25.701Z,7.95
2023-05-17T20:46:52.715Z,8.23
2023-05-17T20:49:19.305Z,7.65
2023-05-17T20:54:12.794Z,9.15
2023-05-17T20:56:40.099Z,8.32
2023-05-17T20:59:07.253Z,8.02
2023-05-17T21:01:34.310Z,9.88
2023-05-17T21:04:01.380Z,7.55
2023-05-17T21:06:30.195Z,8.65
2023-05-17T21:09:02.130Z,8.15
2023-05-17T21:11:29.564Z,7.70
2023-05-17T21:13:57.900Z,8.13
2023-05-17T21:16:24.577Z,8.77
2023-05-17T21:18:51.325Z,8.43
2023-05-17T21:21:18.384Z,8.35
2023-05-17T21:23:44.937Z,8.20
2023-05-17T21:28:38.132Z,8.52
2023-05-17T21:33:32.611Z,7.88
2023-05-17T21:35:59.129Z,8.30
2023-05-17T21:40:52.081Z,7.15
2023-05-17T21:45:45.059Z,7.32
2023-05-17T21:50:38.184Z,7.50
2023-05-17T21:55:36.432Z,7.13
2023-05-17T21:58:07.592Z,8.07
2023-05-17T22:03:44.445Z,7.05
2023-05-17T22:06:11.078Z,7.93
2023-05-17T22:11:05.667Z,7.15
2023-05-17T22:13:32.691Z,7.22
2023-05-17T22:15:59.474Z,6.93
2023-05-17T22:18:27.127Z,7.95
2023-05-17T22:20:55.076Z,7.60
2023-05-17T22:23:21.643Z,7.20
2023-05-17T22:28:14.806Z,8.23
2023-05-17T22:30:41.647Z,7.50
2023-05-17T22:33:09.461Z,6.80
2023-05-17T22:35:36.508Z,6.88
2023-05-17T22:38:03.394Z,8.02
2023-05-17T22:40:30.460Z,7.43
2023-05-17T22:42:58.709Z,6.95
2023-05-17T22:45:26.033Z,6.47
2023-05-17T22:47:52.839Z,7.35
2023-05-17T22:50:19.547Z,7.45
2023-05-17T22:52:46.520Z,7.65
2023-05-17T22:55:13.197Z,6.85
2023-05-17T22:57:40.060Z,7.63
2023-05-17T23:00:09.216Z,7.65
2023-05-17T23:02:36.245Z,7.22
2023-05-17T23:05:04.006Z,7.60
2023-05-17T23:07:36.827Z,7.68
2023-05-17T23:10:08.480Z,6.75
2023-05-17T23:12:36.841Z,6.65
2023-05-17T23:15:07.901Z,7.20
2023-05-17T23:17:36.411Z,6.90
2023-05-17T23:20:13.044Z,6.60
2023-05-17T23:22:39.834Z,6.95
2023-05-17T23:25:07.017Z,7.07
2023-05-17T23:27:35.413Z,6.57
2023-05-17T23:30:03.026Z,7.95
2023-05-17T23:32:32.530Z,7.13
2023-05-17T23:35:03.644Z,7.50
2023-05-17T23:37:34.034Z,6.05
2023-05-17T23:40:00.584Z,6.30
2023-05-17T23:42:29.385Z,6.70
2023-05-17T23:44:56.027Z,7.88
2023-05-17T23:47:22.632Z,7.95
2023-05-17T23:49:49.193Z,8.15
2023-05-17T23:52:18.836Z,6.78
2023-05-17T23:54:46.716Z,7.32
2023-05-17T23:57:13.945Z,6.40
2023-05-17T23:59:40.855Z,7.30
